British Trader — ZIPR7 — position and weather

sailwx.info

Track history (hours):
 
Tides and Currents Weather Stations Pressure Air Temp Water Temp Dewpoint Dewpoint Depression Visibility Wind Speed Wind Dir Waves Ship Positions

British Trader

Last reported at 2017-Mar-25 13:00 UTC. Time now 2017-Mar-25 17:42 UTC.
Position N 34°24' E 023°48'.

Length 278.9 m; beam 42.6 m; draft 12.1 m.

Type: Ship (hazmat cat A). MMSI: 235496000.

Wind from 300 at 17 knots

Barometer 1019.6 mb
Air temperature 18.2 ° C
Visibility: greater than 10.8 NM
Dewpoint 14.4 ° C
Water temperature 16.6 ° C

Date/timePositionNaut miles runAvg speedWind from/ knotsBaromVisibWave heightAir tempDewpointWater temp
2017-Mar-25 13:00N 34°24' E 023°48'3511.6 300 / 171019.610.8 18.214.416.6
2017-Mar-25 10:00N 34°24' E 024°30'54 9.1 1020.810.8 19.011.616.3
2017-Mar-25 04:00N 34°24' E 025°36'3010.1 340 / 101019.110.8 16.015.116.2
2017-Mar-25 01:00N 34°18' E 026°12'69 9.9 300 / 81019.510.8 15.814.816.2
2017-Mar-24 18:00N 34°18' E 027°36'89 8.9 320 / 231018.410.8 16.012.816.5
2017-Mar-24 08:00N 34°18' E 029°24'30 9.9 320 / 101018.6 5.4 16.814.716.1
2017-Mar-24 05:00N 34°18' E 030°00'30 9.9 260 / 101016.4 5.4 16.214.117.2
2017-Mar-24 02:00N 34°18' E 030°36'24 9.8 320 / 101015.910.8 15.913.417.2
2017-Mar-23 23:33N 34°20' E 031°05'81 9.7
2017-Mar-23 15:10N 34°21' E 032°43'6 9.3
2017-Mar-23 14:32N 34°20' E 032°50'9 9.5
2017-Mar-23 13:33N 34°24' E 033°01'1414.1
2017-Mar-23 12:33N 34°35' E 033°10'6 5.9
2017-Mar-23 11:30N 34°40' E 033°05'0 0.0
2017-Mar-23 10:33N 34°40' E 033°05'0 0.0
2017-Mar-23 08:33N 34°40' E 033°05'0 0.0
2017-Mar-23 07:09N 34°40' E 033°05'0 0.3
2017-Mar-23 06:33N 34°40' E 033°05'0 0.1
2017-Mar-23 04:09N 34°40' E 033°05'0 0.1
2017-Mar-23 01:18N 34°40' E 033°05'518.2
2017-Mar-23 01:00N 34°36' E 033°00'5 7.3 030 / 51010.410.8 14.211.816.9
2017-Mar-23 00:15N 34°40' E 033°05'0 0.1
2017-Mar-22 22:33N 34°40' E 033°05'0 0.1
2017-Mar-22 21:30N 34°40' E 033°05'0 0.0
2017-Mar-22 19:33N 34°40' E 033°05'0 0.1
2017-Mar-22 17:33N 34°40' E 033°05'0 0.1
2017-Mar-22 14:24N 34°40' E 033°05'0 0.0
2017-Mar-22 13:24N 34°40' E 033°05'613.8
2017-Mar-22 13:00N 34°36' E 033°00'6 8.1 090 / 91010.510.8 17.113.816.9
2017-Mar-22 12:18N 34°40' E 033°05'0 0.1
2017-Mar-22 11:33N 34°40' E 033°05'0 0.0
2017-Mar-22 10:18N 34°40' E 033°05'0 0.2
2017-Mar-22 09:27N 34°40' E 033°05'0 0.1
2017-Mar-22 07:30N 34°40' E 033°05'6 0.9
2017-Mar-22 01:00N 34°36' E 033°00'6 1.6 010 / 71013.710.8 14.410.816.7
2017-Mar-21 21:27N 34°40' E 033°05'0 0.0
2017-Mar-21 18:30N 34°40' E 033°05'0 0.0
2017-Mar-21 16:24N 34°40' E 033°05'0 0.0
2017-Mar-21 15:33N 34°40' E 033°05'0 0.0
2017-Mar-21 14:33N 34°40' E 033°05'0 0.0
2017-Mar-21 13:33N 34°40' E 033°05'0 0.0
2017-Mar-21 12:33N 34°40' E 033°05'0 0.0
2017-Mar-21 11:27N 34°40' E 033°05'0 0.0
2017-Mar-21 10:33N 34°40' E 033°05'0 0.0
2017-Mar-21 09:30N 34°40' E 033°05'0 0.0
2017-Mar-21 08:27N 34°40' E 033°05'6 0.8
2017-Mar-21 01:00N 34°36' E 033°00'6 1.2 290 / 101014.110.8 14.310.716.7
2017-Mar-20 20:15N 34°40' E 033°05'0 0.0
2017-Mar-20 16:15N 34°40' E 033°05'0 0.0
2017-Mar-20 15:12N 34°40' E 033°05'0 0.0
2017-Mar-20 13:30N 34°40' E 033°05'0 0.0
2017-Mar-20 09:24N 34°40' E 033°05'0 0.0
2017-Mar-19 06:24N 34°40' E 033°05'0 0.0
2017-Mar-18 21:18N 34°40' E 033°05'0 0.0
2017-Mar-18 13:21N 34°40' E 033°04'0 0.0
2017-Mar-18 11:09N 34°40' E 033°04'0 0.0
2017-Mar-18 07:24N 34°40' E 033°04'1 1.6
2017-Mar-18 06:32N 34°39' E 033°05'6 6.6
2017-Mar-18 05:33N 34°33' E 033°08'100 6.4
2017-Mar-17 14:00N 33°00' E 033°54'38 7.7 260 / 81014.810.8 16.011.417.3
2017-Mar-17 09:05N 32°33' E 034°26'816.0
2017-Mar-17 08:33N 32°32' E 034°36'9 8.7
2017-Mar-17 07:33N 32°29' E 034°46'1 1.3
2017-Mar-17 06:33N 32°28' E 034°44'2 1.7
2017-Mar-17 05:33N 32°27' E 034°46'0 0.0
2017-Mar-17 04:30N 32°27' E 034°46'0 0.0
2017-Mar-17 03:33N 32°27' E 034°46'0 0.0
2017-Mar-17 02:33N 32°27' E 034°46'0 0.0
2017-Mar-17 01:33N 32°27' E 034°46'0 0.0
2017-Mar-17 00:30N 32°27' E 034°46'0 0.0
2017-Mar-16 23:33N 32°27' E 034°46'0 0.0
2017-Mar-16 22:33N 32°27' E 034°46'0 0.0
2017-Mar-16 21:27N 32°27' E 034°46'0 0.0
2017-Mar-16 20:27N 32°27' E 034°46'0 0.0
2017-Mar-16 19:33N 32°27' E 034°46'0 0.0
2017-Mar-16 18:33N 32°27' E 034°46'0 0.0
2017-Mar-16 17:33N 32°27' E 034°46'0 0.0
2017-Mar-16 16:33N 32°27' E 034°46'0 0.0
2017-Mar-16 15:33N 32°27' E 034°46'0 0.0
2017-Mar-16 14:33N 32°27' E 034°46'0 0.0
2017-Mar-16 13:33N 32°27' E 034°46'0 0.0
2017-Mar-16 12:33N 32°27' E 034°46'0 0.0
2017-Mar-16 11:33N 32°27' E 034°46'0 0.0
2017-Mar-16 10:33N 32°27' E 034°46'0 0.0
2017-Mar-16 09:33N 32°27' E 034°46'0 0.0
2017-Mar-16 08:33N 32°27' E 034°46'0 0.0
2017-Mar-16 07:33N 32°27' E 034°46'0 0.0
2017-Mar-16 06:33N 32°27' E 034°46'0 0.0
2017-Mar-16 05:33N 32°27' E 034°46'0 0.0
2017-Mar-16 04:33N 32°27' E 034°46'0 0.0
2017-Mar-16 03:27N 32°27' E 034°46'0 0.0
2017-Mar-16 02:33N 32°27' E 034°46'0 0.0
2017-Mar-16 01:33N 32°27' E 034°46'0 0.0
2017-Mar-16 00:33N 32°27' E 034°46'0 0.0
2017-Mar-15 23:33N 32°27' E 034°46'0 0.0
2017-Mar-15 22:33N 32°27' E 034°46'0 0.0
2017-Mar-15 21:33N 32°27' E 034°46'0 0.0
2017-Mar-15 20:33N 32°27' E 034°46'0 0.0
2017-Mar-15 19:33N 32°27' E 034°46'0 0.0
2017-Mar-15 18:33N 32°27' E 034°46'0 0.0
2017-Mar-15 17:33N 32°27' E 034°46'0 0.0
2017-Mar-15 16:33N 32°27' E 034°46'0 0.0
2017-Mar-15 15:33N 32°27' E 034°46'0 0.0
2017-Mar-15 14:33N 32°27' E 034°46'0 0.0
2017-Mar-15 13:33N 32°27' E 034°46'  
Track history (hours):
 
Tides and Currents Weather Stations Pressure Air Temp Water Temp Dewpoint Dewpoint Depression Visibility Wind Speed Wind Dir Waves Ship Positions

British Trader

Last reported at 2017-Mar-25 13:00 UTC. Time now 2017-Mar-25 17:42 UTC.
Position N 34°24' E 023°48'.

Length 278.9 m; beam 42.6 m; draft 12.1 m.

Type: Ship (hazmat cat A). MMSI: 235496000.

Wind from 300 at 17 knots

Barometer 1019.6 mb
Air temperature 18.2 ° C
Visibility: greater than 10.8 NM
Dewpoint 14.4 ° C
Water temperature 16.6 ° C

Date/timePositionNaut miles runAvg speedWind from/ knotsBaromVisibWave heightAir tempDewpointWater temp
2017-Mar-25 13:00N 34°24' E 023°48'3511.6 300 / 171019.610.8 18.214.416.6
2017-Mar-25 10:00N 34°24' E 024°30'54 9.1 1020.810.8 19.011.616.3
2017-Mar-25 04:00N 34°24' E 025°36'3010.1 340 / 101019.110.8 16.015.116.2
2017-Mar-25 01:00N 34°18' E 026°12'69 9.9 300 / 81019.510.8 15.814.816.2
2017-Mar-24 18:00N 34°18' E 027°36'89 8.9 320 / 231018.410.8 16.012.816.5
2017-Mar-24 08:00N 34°18' E 029°24'30 9.9 320 / 101018.6 5.4 16.814.716.1
2017-Mar-24 05:00N 34°18' E 030°00'30 9.9 260 / 101016.4 5.4 16.214.117.2
2017-Mar-24 02:00N 34°18' E 030°36'24 9.8 320 / 101015.910.8 15.913.417.2
2017-Mar-23 23:33N 34°20' E 031°05'81 9.7
2017-Mar-23 15:10N 34°21' E 032°43'6 9.3
2017-Mar-23 14:32N 34°20' E 032°50'9 9.5
2017-Mar-23 13:33N 34°24' E 033°01'1414.1
2017-Mar-23 12:33N 34°35' E 033°10'6 5.9
2017-Mar-23 11:30N 34°40' E 033°05'0 0.0
2017-Mar-23 10:33N 34°40' E 033°05'0 0.0
2017-Mar-23 08:33N 34°40' E 033°05'0 0.0
2017-Mar-23 07:09N 34°40' E 033°05'0 0.3
2017-Mar-23 06:33N 34°40' E 033°05'0 0.1
2017-Mar-23 04:09N 34°40' E 033°05'0 0.1
2017-Mar-23 01:18N 34°40' E 033°05'518.2
2017-Mar-23 01:00N 34°36' E 033°00'5 7.3 030 / 51010.410.8 14.211.816.9
2017-Mar-23 00:15N 34°40' E 033°05'0 0.1
2017-Mar-22 22:33N 34°40' E 033°05'0 0.1
2017-Mar-22 21:30N 34°40' E 033°05'0 0.0
2017-Mar-22 19:33N 34°40' E 033°05'0 0.1
2017-Mar-22 17:33N 34°40' E 033°05'0 0.1
2017-Mar-22 14:24N 34°40' E 033°05'0 0.0
2017-Mar-22 13:24N 34°40' E 033°05'613.8
2017-Mar-22 13:00N 34°36' E 033°00'6 8.1 090 / 91010.510.8 17.113.816.9
2017-Mar-22 12:18N 34°40' E 033°05'0 0.1
2017-Mar-22 11:33N 34°40' E 033°05'0 0.0
2017-Mar-22 10:18N 34°40' E 033°05'0 0.2
2017-Mar-22 09:27N 34°40' E 033°05'0 0.1
2017-Mar-22 07:30N 34°40' E 033°05'6 0.9
2017-Mar-22 01:00N 34°36' E 033°00'6 1.6 010 / 71013.710.8 14.410.816.7
2017-Mar-21 21:27N 34°40' E 033°05'0 0.0
2017-Mar-21 18:30N 34°40' E 033°05'0 0.0
2017-Mar-21 16:24N 34°40' E 033°05'0 0.0
2017-Mar-21 15:33N 34°40' E 033°05'0 0.0
2017-Mar-21 14:33N 34°40' E 033°05'0 0.0
2017-Mar-21 13:33N 34°40' E 033°05'0 0.0
2017-Mar-21 12:33N 34°40' E 033°05'0 0.0
2017-Mar-21 11:27N 34°40' E 033°05'0 0.0
2017-Mar-21 10:33N 34°40' E 033°05'0 0.0
2017-Mar-21 09:30N 34°40' E 033°05'0 0.0
2017-Mar-21 08:27N 34°40' E 033°05'6 0.8
2017-Mar-21 01:00N 34°36' E 033°00'6 1.2 290 / 101014.110.8 14.310.716.7
2017-Mar-20 20:15N 34°40' E 033°05'0 0.0
2017-Mar-20 16:15N 34°40' E 033°05'0 0.0
2017-Mar-20 15:12N 34°40' E 033°05'0 0.0
2017-Mar-20 13:30N 34°40' E 033°05'0 0.0
2017-Mar-20 09:24N 34°40' E 033°05'0 0.0
2017-Mar-19 06:24N 34°40' E 033°05'0 0.0
2017-Mar-18 21:18N 34°40' E 033°05'0 0.0
2017-Mar-18 13:21N 34°40' E 033°04'0 0.0
2017-Mar-18 11:09N 34°40' E 033°04'0 0.0
2017-Mar-18 07:24N 34°40' E 033°04'1 1.6
2017-Mar-18 06:32N 34°39' E 033°05'6 6.6
2017-Mar-18 05:33N 34°33' E 033°08'100 6.4
2017-Mar-17 14:00N 33°00' E 033°54'38 7.7 260 / 81014.810.8 16.011.417.3
2017-Mar-17 09:05N 32°33' E 034°26'816.0
2017-Mar-17 08:33N 32°32' E 034°36'9 8.7
2017-Mar-17 07:33N 32°29' E 034°46'1 1.3
2017-Mar-17 06:33N 32°28' E 034°44'2 1.7
2017-Mar-17 05:33N 32°27' E 034°46'0 0.0
2017-Mar-17 04:30N 32°27' E 034°46'0 0.0
2017-Mar-17 03:33N 32°27' E 034°46'0 0.0
2017-Mar-17 02:33N 32°27' E 034°46'0 0.0
2017-Mar-17 01:33N 32°27' E 034°46'0 0.0
2017-Mar-17 00:30N 32°27' E 034°46'0 0.0
2017-Mar-16 23:33N 32°27' E 034°46'0 0.0
2017-Mar-16 22:33N 32°27' E 034°46'0 0.0
2017-Mar-16 21:27N 32°27' E 034°46'0 0.0
2017-Mar-16 20:27N 32°27' E 034°46'0 0.0
2017-Mar-16 19:33N 32°27' E 034°46'0 0.0
2017-Mar-16 18:33N 32°27' E 034°46'0 0.0
2017-Mar-16 17:33N 32°27' E 034°46'0 0.0
2017-Mar-16 16:33N 32°27' E 034°46'0 0.0
2017-Mar-16 15:33N 32°27' E 034°46'0 0.0
2017-Mar-16 14:33N 32°27' E 034°46'0 0.0
2017-Mar-16 13:33N 32°27' E 034°46'0 0.0
2017-Mar-16 12:33N 32°27' E 034°46'0 0.0
2017-Mar-16 11:33N 32°27' E 034°46'0 0.0
2017-Mar-16 10:33N 32°27' E 034°46'0 0.0
2017-Mar-16 09:33N 32°27' E 034°46'0 0.0
2017-Mar-16 08:33N 32°27' E 034°46'0 0.0
2017-Mar-16 07:33N 32°27' E 034°46'0 0.0
2017-Mar-16 06:33N 32°27' E 034°46'0 0.0
2017-Mar-16 05:33N 32°27' E 034°46'0 0.0
2017-Mar-16 04:33N 32°27' E 034°46'0 0.0
2017-Mar-16 03:27N 32°27' E 034°46'0 0.0
2017-Mar-16 02:33N 32°27' E 034°46'0 0.0
2017-Mar-16 01:33N 32°27' E 034°46'0 0.0
2017-Mar-16 00:33N 32°27' E 034°46'0 0.0
2017-Mar-15 23:33N 32°27' E 034°46'0 0.0
2017-Mar-15 22:33N 32°27' E 034°46'0 0.0
2017-Mar-15 21:33N 32°27' E 034°46'0 0.0
2017-Mar-15 20:33N 32°27' E 034°46'0 0.0
2017-Mar-15 19:33N 32°27' E 034°46'0 0.0
2017-Mar-15 18:33N 32°27' E 034°46'0 0.0
2017-Mar-15 17:33N 32°27' E 034°46'0 0.0
2017-Mar-15 16:33N 32°27' E 034°46'0 0.0
2017-Mar-15 15:33N 32°27' E 034°46'0 0.0
2017-Mar-15 14:33N 32°27' E 034°46'0 0.0
2017-Mar-15 13:33N 32°27' E 034°46'  

Dump ship's entire track history